createdAt,value
2022-10-09T00:00:38.720Z,9.45
2022-10-09T00:03:07.962Z,9.40
2022-10-09T00:05:36.015Z,9.45
2022-10-09T00:08:05.395Z,9.43
2022-10-09T00:10:33.705Z,9.36
2022-10-09T00:13:02.037Z,9.30
2022-10-09T00:15:30.908Z,9.25
2022-10-09T00:17:58.499Z,9.26
2022-10-09T00:20:28.447Z,9.24
2022-10-09T00:23:00.135Z,9.20
2022-10-09T00:25:27.525Z,9.18
2022-10-09T00:27:57.384Z,9.21
2022-10-09T00:30:29.437Z,9.25
2022-10-09T00:32:59.762Z,9.15
2022-10-09T00:35:27.561Z,9.10
2022-10-09T00:37:55.671Z,9.05
2022-10-09T00:40:26.301Z,9.00
2022-10-09T00:42:59.003Z,8.98
2022-10-09T00:45:27.464Z,8.95
2022-10-09T00:47:58.498Z,9.00
2022-10-09T00:50:42.248Z,8.99
2022-10-09T00:53:14.994Z,8.99
2022-10-09T00:55:43.657Z,9.01
2022-10-09T00:58:13.309Z,8.98
2022-10-09T01:00:43.104Z,8.96
2022-10-09T01:03:11.161Z,8.93
2022-10-09T01:06:48.036Z,8.93
2022-10-09T01:09:23.926Z,8.97
2022-10-09T01:12:13.518Z,8.95
2022-10-09T01:15:06.502Z,8.91
2022-10-09T01:17:38.422Z,8.85
2022-10-09T01:20:06.490Z,8.82
2022-10-09T01:23:03.222Z,8.79
2022-10-09T01:25:51.609Z,8.73
2022-10-09T01:28:20.686Z,8.78
2022-10-09T01:30:52.132Z,8.75
2022-10-09T01:33:22.134Z,8.79
2022-10-09T01:35:55.014Z,8.74
2022-10-09T01:38:23.228Z,8.67
2022-10-09T01:40:54.148Z,8.60
2022-10-09T01:43:25.737Z,8.59
2022-10-09T01:46:13.514Z,8.62
2022-10-09T01:48:43.578Z,8.57
2022-10-09T01:51:12.662Z,8.55
2022-10-09T01:53:40.374Z,8.68
2022-10-09T01:56:19.661Z,8.62
2022-10-09T01:59:12.393Z,8.54
2022-10-09T02:01:45.138Z,8.55
2022-10-09T02:04:20.922Z,8.56
2022-10-09T02:06:50.270Z,8.52
2022-10-09T02:09:19.399Z,8.48
2022-10-09T02:11:53.499Z,8.46
2022-10-09T02:14:21.163Z,8.46
2022-10-09T02:16:57.456Z,8.47
2022-10-09T02:19:40.324Z,8.47
2022-10-09T02:22:12.761Z,8.55
2022-10-09T02:24:42.735Z,8.59
2022-10-09T02:27:11.634Z,8.59
2022-10-09T02:29:45.210Z,8.55
2022-10-09T02:32:13.553Z,8.53
2022-10-09T02:34:43.010Z,8.56
2022-10-09T02:37:19.225Z,8.55
2022-10-09T02:39:51.327Z,8.55
2022-10-09T02:42:18.423Z,8.57
2022-10-09T02:44:48.406Z,8.52
2022-10-09T02:47:16.952Z,8.57
2022-10-09T02:49:50.668Z,8.54
2022-10-09T02:52:21.483Z,8.46
2022-10-09T02:54:51.237Z,8.48
2022-10-09T02:57:21.129Z,8.46
2022-10-09T02:59:52.213Z,8.47
2022-10-09T03:02:23.892Z,8.42
2022-10-09T03:04:52.871Z,8.38
2022-10-09T03:07:20.320Z,8.33
2022-10-09T03:09:53.239Z,8.35
2022-10-09T03:12:22.767Z,8.37
2022-10-09T03:14:51.858Z,8.32
2022-10-09T03:17:21.369Z,8.31
2022-10-09T03:19:48.649Z,8.33
2022-10-09T03:22:16.797Z,8.32
2022-10-09T03:24:46.909Z,8.30
2022-10-09T03:27:14.217Z,8.35
2022-10-09T03:29:42.674Z,8.34
2022-10-09T03:32:10.585Z,8.27
2022-10-09T03:34:38.468Z,8.24
2022-10-09T03:37:10.044Z,8.20
2022-10-09T03:39:39.794Z,8.18
2022-10-09T03:42:12.350Z,8.16
2022-10-09T03:44:45.155Z,8.22
2022-10-09T03:47:13.799Z,8.22
2022-10-09T03:49:45.270Z,8.21
2022-10-09T03:52:13.484Z,8.21
2022-10-09T03:54:44.169Z,8.21
2022-10-09T03:57:12.610Z,8.22
2022-10-09T03:59:40.003Z,8.22
2022-10-09T04:02:10.315Z,8.24
2022-10-09T04:04:38.568Z,8.21
2022-10-09T04:07:17.986Z,8.19
2022-10-09T04:09:50.210Z,8.23
2022-10-09T04:12:17.545Z,8.21
2022-10-09T04:14:45.266Z,8.22
2022-10-09T04:17:12.377Z,8.30
2022-10-09T04:19:39.531Z,8.28
2022-10-09T04:22:06.686Z,8.24
2022-10-09T04:24:33.882Z,8.20
2022-10-09T04:27:03.254Z,8.13
2022-10-09T04:29:31.354Z,8.11
2022-10-09T04:31:58.828Z,8.12
2022-10-09T04:34:26.673Z,8.17
2022-10-09T04:36:56.463Z,8.16
2022-10-09T04:39:23.573Z,8.13
2022-10-09T04:41:51.101Z,8.14
2022-10-09T04:44:18.258Z,8.21
2022-10-09T04:46:47.586Z,8.22
2022-10-09T04:49:18.544Z,8.22
2022-10-09T04:51:47.052Z,8.17
2022-10-09T04:54:14.482Z,8.15
2022-10-09T04:56:42.013Z,8.12
2022-10-09T04:59:09.370Z,8.14
2022-10-09T05:01:38.505Z,8.18
2022-10-09T05:04:05.950Z,8.15
2022-10-09T05:06:33.205Z,8.12
2022-10-09T05:09:01.387Z,8.07
2022-10-09T05:11:28.720Z,8.03
2022-10-09T05:13:56.615Z,7.99
2022-10-09T05:16:26.668Z,8.01
2022-10-09T05:18:56.489Z,8.07
2022-10-09T05:21:25.098Z,8.05
2022-10-09T05:23:54.536Z,7.99
2022-10-09T05:26:23.184Z,8.00
2022-10-09T05:28:50.787Z,8.04
2022-10-09T05:31:22.047Z,8.09
2022-10-09T05:33:49.721Z,8.13
2022-10-09T05:36:17.169Z,8.13
2022-10-09T05:38:44.540Z,8.12
2022-10-09T05:41:16.870Z,8.10
2022-10-09T05:43:45.652Z,8.13
2022-10-09T05:46:25.190Z,8.09
2022-10-09T05:49:00.825Z,8.10
2022-10-09T05:51:35.901Z,8.12
2022-10-09T05:54:04.070Z,8.13
2022-10-09T05:56:37.264Z,8.07
2022-10-09T05:59:06.759Z,8.09
2022-10-09T06:01:38.059Z,8.09
2022-10-09T06:04:12.831Z,8.07
2022-10-09T06:06:43.786Z,8.02
2022-10-09T06:09:13.010Z,8.01
2022-10-09T06:11:43.014Z,8.07
2022-10-09T06:14:14.590Z,8.12
2022-10-09T06:16:44.429Z,8.18
2022-10-09T06:19:19.542Z,8.20
2022-10-09T06:21:48.289Z,8.24
2022-10-09T06:24:28.279Z,8.26
2022-10-09T06:26:59.638Z,8.24
2022-10-09T06:29:29.974Z,8.26
2022-10-09T06:31:59.319Z,8.29
2022-10-09T06:34:29.961Z,8.33
2022-10-09T06:36:58.415Z,8.38
2022-10-09T06:39:30.886Z,8.41
2022-10-09T06:42:01.212Z,8.41
2022-10-09T06:44:29.841Z,8.42
2022-10-09T06:46:58.452Z,8.47
2022-10-09T06:49:25.806Z,8.52
2022-10-09T06:51:54.161Z,8.56
2022-10-09T06:54:29.580Z,8.62
2022-10-09T06:56:58.322Z,8.62
2022-10-09T06:59:31.424Z,8.62
2022-10-09T07:02:01.055Z,8.69
2022-10-09T07:04:29.179Z,8.65
2022-10-09T07:06:59.571Z,8.68
2022-10-09T07:09:27.421Z,8.73
2022-10-09T07:11:56.873Z,8.78
2022-10-09T07:14:24.236Z,8.85
2022-10-09T07:16:55.726Z,8.91
2022-10-09T07:19:26.511Z,8.96
2022-10-09T07:21:54.130Z,9.04
2022-10-09T07:24:24.985Z,9.07
2022-10-09T07:27:04.348Z,9.14
2022-10-09T07:29:39.306Z,9.21
2022-10-09T07:32:12.897Z,9.27
2022-10-09T07:34:45.558Z,9.36
2022-10-09T07:37:13.690Z,9.45
2022-10-09T07:39:45.021Z,9.46
2022-10-09T07:42:17.100Z,9.51
2022-10-09T07:44:46.991Z,9.58
2022-10-09T07:47:21.342Z,9.61
2022-10-09T07:50:01.354Z,9.64
2022-10-09T07:52:32.635Z,9.69
2022-10-09T07:55:02.499Z,9.76
2022-10-09T07:57:29.656Z,9.83
2022-10-09T07:59:56.853Z,9.89
2022-10-09T08:02:24.223Z,9.98
2022-10-09T08:04:53.995Z,10.07
2022-10-09T08:07:21.157Z,10.11
2022-10-09T08:09:49.238Z,10.15
2022-10-09T08:12:16.552Z,10.19
2022-10-09T08:14:47.345Z,10.23
2022-10-09T08:17:15.404Z,10.26
2022-10-09T08:19:43.570Z,10.31
2022-10-09T08:22:12.611Z,10.37
2022-10-09T08:24:48.912Z,10.44
2022-10-09T08:27:16.686Z,10.48
2022-10-09T08:29:43.813Z,10.54
2022-10-09T08:32:11.446Z,10.63
2022-10-09T08:34:39.451Z,10.72
2022-10-09T08:37:06.878Z,10.77
2022-10-09T08:39:35.067Z,10.83
2022-10-09T08:42:03.667Z,10.89
2022-10-09T08:44:39.933Z,10.93
2022-10-09T08:47:19.075Z,10.98
2022-10-09T08:50:15.893Z,11.07
2022-10-09T08:53:07.870Z,11.13
2022-10-09T08:55:49.619Z,11.17
2022-10-09T08:58:19.551Z,11.27
2022-10-09T09:00:55.055Z,11.35
2022-10-09T09:03:29.962Z,11.45
2022-10-09T09:06:05.907Z,11.53
2022-10-09T09:08:48.597Z,11.59
2022-10-09T09:11:50.060Z,11.64
2022-10-09T09:15:02.480Z,11.73
2022-10-09T09:17:53.894Z,11.83
2022-10-09T09:20:21.100Z,11.98
2022-10-09T09:22:54.415Z,12.06
2022-10-09T09:25:26.278Z,12.14
2022-10-09T09:27:58.527Z,12.16
2022-10-09T09:30:38.360Z,12.26
2022-10-09T09:33:21.897Z,12.36
2022-10-09T09:36:31.132Z,12.47
2022-10-09T09:41:46.634Z,12.65
2022-10-09T09:44:17.001Z,12.74
2022-10-09T09:46:44.845Z,12.83
2022-10-09T09:49:27.462Z,12.94
2022-10-09T09:51:56.615Z,12.99
2022-10-09T09:54:27.198Z,13.02
2022-10-09T09:57:21.950Z,13.14
2022-10-09T09:59:59.576Z,13.21
2022-10-09T10:02:31.416Z,13.25
2022-10-09T10:05:03.838Z,13.33
2022-10-09T10:08:00.992Z,13.48
2022-10-09T10:10:30.550Z,13.54
2022-10-09T10:13:06.750Z,13.59
2022-10-09T10:15:38.993Z,13.61
2022-10-09T10:18:14.910Z,13.62
2022-10-09T10:20:49.880Z,13.75
2022-10-09T10:24:08.469Z,13.87
2022-10-09T10:26:44.826Z,13.84
2022-10-09T10:29:22.384Z,13.90
2022-10-09T10:32:13.869Z,14.00
2022-10-09T10:35:06.908Z,14.14
2022-10-09T10:37:51.022Z,14.28
2022-10-09T10:40:27.900Z,14.43
2022-10-09T10:43:14.682Z,14.59
2022-10-09T10:45:44.616Z,14.81
2022-10-09T10:48:30.736Z,14.87
2022-10-09T10:51:07.037Z,14.96
2022-10-09T10:53:53.642Z,15.00
2022-10-09T10:56:44.948Z,15.20
2022-10-09T10:59:39.623Z,15.35
2022-10-09T11:02:32.732Z,15.49
2022-10-09T11:05:22.306Z,15.65
2022-10-09T11:08:08.205Z,15.75
2022-10-09T11:10:45.455Z,15.68
2022-10-09T11:13:29.820Z,15.76
2022-10-09T11:16:37.464Z,16.01
2022-10-09T11:20:19.190Z,16.35
2022-10-09T11:23:03.564Z,16.56
2022-10-09T11:25:50.452Z,16.81
2022-10-09T11:29:01.440Z,16.92
2022-10-09T11:31:51.608Z,17.17
2022-10-09T11:34:47.197Z,17.38
2022-10-09T11:37:21.857Z,17.63
2022-10-09T11:39:49.258Z,17.85
2022-10-09T11:42:20.821Z,18.06
2022-10-09T11:44:58.669Z,18.32
2022-10-09T11:47:42.453Z,18.54
2022-10-09T11:50:37.450Z,18.74
2022-10-09T11:53:11.469Z,18.94
2022-10-09T11:55:45.008Z,19.14
2022-10-09T11:59:00.291Z,19.36
2022-10-09T12:01:42.685Z,19.46
2022-10-09T12:04:15.487Z,19.71
2022-10-09T12:06:48.499Z,19.62
2022-10-09T12:09:30.884Z,19.93
2022-10-09T12:12:20.130Z,20.38
2022-10-09T12:14:50.403Z,20.98
2022-10-09T12:17:23.446Z,21.27
2022-10-09T12:20:11.559Z,21.85
2022-10-09T12:23:07.241Z,21.72
2022-10-09T12:25:48.337Z,21.63
2022-10-09T12:28:22.445Z,21.74
2022-10-09T12:31:30.742Z,22.19
2022-10-09T12:34:06.689Z,22.23
2022-10-09T12:36:37.269Z,22.74
2022-10-09T12:39:37.629Z,23.31
2022-10-09T12:42:05.240Z,23.12
2022-10-09T12:44:39.878Z,22.80
2022-10-09T12:47:26.254Z,23.68
2022-10-09T12:50:12.580Z,24.56
2022-10-09T12:53:00.770Z,24.95
2022-10-09T12:55:51.877Z,24.54
2022-10-09T12:58:36.413Z,23.97
2022-10-09T13:01:08.451Z,23.52
2022-10-09T13:03:41.055Z,23.09
2022-10-09T13:06:19.673Z,22.80
2022-10-09T13:08:52.346Z,22.63
2022-10-09T13:11:34.827Z,22.84
2022-10-09T13:14:04.793Z,23.22
2022-10-09T13:16:44.601Z,23.81
2022-10-09T13:19:39.707Z,24.56
2022-10-09T13:22:13.286Z,24.70
2022-10-09T13:24:40.856Z,24.40
2022-10-09T13:27:10.455Z,23.08
2022-10-09T13:29:37.817Z,22.96
2022-10-09T13:32:05.617Z,22.78
2022-10-09T13:34:32.936Z,22.36
2022-10-09T13:37:00.567Z,22.94
2022-10-09T13:39:27.891Z,23.18
2022-10-09T13:41:57.810Z,23.17
2022-10-09T13:44:26.991Z,22.66
2022-10-09T13:46:55.431Z,22.47
2022-10-09T13:49:24.429Z,22.28
2022-10-09T13:51:51.715Z,22.36
2022-10-09T13:54:18.935Z,22.65
2022-10-09T13:56:46.450Z,23.20
2022-10-09T13:59:13.821Z,23.69
2022-10-09T14:01:45.417Z,24.23
2022-10-09T14:04:12.644Z,24.89
2022-10-09T14:06:41.591Z,25.62
2022-10-09T14:09:11.511Z,25.23
2022-10-09T14:11:38.623Z,25.05
2022-10-09T14:14:05.982Z,24.82
2022-10-09T14:16:33.422Z,24.78
2022-10-09T14:19:05.019Z,24.94
2022-10-09T14:21:32.771Z,25.01
2022-10-09T14:24:02.153Z,24.81
2022-10-09T14:26:30.494Z,24.97
2022-10-09T14:29:00.204Z,24.53
2022-10-09T14:31:30.371Z,24.19
2022-10-09T14:33:59.375Z,23.89
2022-10-09T14:36:27.291Z,23.66
2022-10-09T14:38:55.088Z,23.08
2022-10-09T14:41:25.508Z,22.67
2022-10-09T14:43:59.991Z,22.58
2022-10-09T14:46:28.340Z,22.37
2022-10-09T14:48:56.646Z,22.10
2022-10-09T14:51:26.141Z,21.82
2022-10-09T14:53:58.362Z,21.67
2022-10-09T14:56:26.782Z,21.63
2022-10-09T14:58:54.327Z,21.56
2022-10-09T15:01:22.711Z,21.32
2022-10-09T15:03:50.116Z,21.15
2022-10-09T15:06:20.183Z,21.10
2022-10-09T15:08:47.454Z,21.04
2022-10-09T15:11:16.172Z,20.89
2022-10-09T15:13:43.314Z,20.56
2022-10-09T15:16:17.763Z,20.25
2022-10-09T15:18:45.765Z,20.04
2022-10-09T15:21:17.587Z,19.77
2022-10-09T15:23:45.135Z,19.55
2022-10-09T15:26:15.143Z,19.45
2022-10-09T15:28:44.869Z,19.43
2022-10-09T15:31:35.723Z,19.28
2022-10-09T15:34:05.448Z,19.27
2022-10-09T15:36:35.488Z,19.23
2022-10-09T15:39:06.052Z,19.18
2022-10-09T15:41:37.552Z,19.13
2022-10-09T15:44:08.881Z,19.05
2022-10-09T15:46:36.055Z,18.98
2022-10-09T15:49:04.283Z,18.93
2022-10-09T15:51:33.411Z,18.82
2022-10-09T15:54:05.874Z,18.72
2022-10-09T15:56:43.268Z,18.60
2022-10-09T15:59:16.994Z,18.45
2022-10-09T16:01:49.796Z,18.33
2022-10-09T16:04:28.934Z,18.18
2022-10-09T16:07:02.418Z,18.00
2022-10-09T16:09:41.947Z,17.79
2022-10-09T16:12:15.271Z,17.70
2022-10-09T16:14:47.652Z,17.63
2022-10-09T16:17:17.605Z,17.42
2022-10-09T16:19:45.844Z,17.31
2022-10-09T16:22:13.050Z,17.18
2022-10-09T16:24:42.494Z,17.11
2022-10-09T16:27:09.958Z,17.05
2022-10-09T16:29:39.610Z,16.97
2022-10-09T16:32:06.821Z,16.92
2022-10-09T16:34:34.016Z,16.86
2022-10-09T16:37:04.564Z,16.77
2022-10-09T16:39:31.857Z,16.66
2022-10-09T16:42:05.834Z,16.54
2022-10-09T16:44:34.008Z,16.42
2022-10-09T16:47:07.078Z,16.28
2022-10-09T16:49:37.963Z,16.21
2022-10-09T16:52:05.290Z,16.15
2022-10-09T16:54:32.386Z,16.00
2022-10-09T16:56:59.591Z,15.99
2022-10-09T16:59:26.774Z,15.94
2022-10-09T17:01:55.247Z,15.92
2022-10-09T17:04:24.319Z,15.88
2022-10-09T17:14:34.968Z,15.50
2022-10-09T17:17:08.070Z,15.38
2022-10-09T17:19:41.974Z,15.32
2022-10-09T17:22:09.168Z,15.24
2022-10-09T17:24:36.963Z,15.20
2022-10-09T17:27:11.409Z,15.16
2022-10-09T17:29:43.016Z,15.11
2022-10-09T17:32:16.388Z,15.05
2022-10-09T17:34:45.982Z,15.01
2022-10-09T17:37:18.657Z,14.94
2022-10-09T17:39:52.061Z,14.87
2022-10-09T17:42:26.933Z,14.68
2022-10-09T17:45:18.931Z,14.65
2022-10-09T17:47:58.718Z,14.62
2022-10-09T17:50:31.186Z,14.54
2022-10-09T17:53:24.073Z,14.49
2022-10-09T17:56:09.736Z,14.44
2022-10-09T17:58:43.458Z,14.41
2022-10-09T18:01:20.459Z,14.36
2022-10-09T18:03:55.599Z,14.30
2022-10-09T18:07:01.510Z,14.13
2022-10-09T18:09:40.937Z,14.09
2022-10-09T18:12:10.957Z,14.09
2022-10-09T18:14:44.601Z,14.10
2022-10-09T18:17:16.911Z,14.00
2022-10-09T18:19:50.539Z,13.98
2022-10-09T18:22:22.579Z,13.97
2022-10-09T18:24:50.174Z,13.93
2022-10-09T18:27:35.394Z,13.88
2022-10-09T18:30:06.848Z,13.84
2022-10-09T18:32:35.290Z,13.79
2022-10-09T18:35:17.905Z,13.70
2022-10-09T18:37:47.486Z,13.65
2022-10-09T18:40:20.037Z,13.65
2022-10-09T18:42:52.879Z,13.62
2022-10-09T18:45:21.600Z,13.61
2022-10-09T18:48:05.852Z,13.55
2022-10-09T18:50:36.693Z,13.33
2022-10-09T18:53:07.090Z,13.25
2022-10-09T18:55:35.628Z,13.24
2022-10-09T18:58:05.536Z,13.24
2022-10-09T19:00:32.916Z,13.24
2022-10-09T19:03:02.685Z,13.22
2022-10-09T19:05:36.022Z,13.21
2022-10-09T19:08:06.055Z,13.21
2022-10-09T19:11:02.345Z,13.22
2022-10-09T19:13:39.696Z,13.18
2022-10-09T19:16:30.555Z,13.15
2022-10-09T19:19:19.125Z,13.06
2022-10-09T19:22:14.952Z,12.96
2022-10-09T19:24:56.135Z,12.89
2022-10-09T19:27:44.832Z,12.86
2022-10-09T19:33:05.239Z,12.80
2022-10-09T19:38:20.259Z,12.75
2022-10-09T19:40:51.976Z,12.71
2022-10-09T19:43:21.397Z,12.65
2022-10-09T19:45:53.822Z,12.59
2022-10-09T19:48:30.519Z,12.57
2022-10-09T19:51:15.956Z,12.53
2022-10-09T19:53:48.695Z,12.49
2022-10-09T19:56:27.320Z,12.47
2022-10-09T19:58:58.220Z,12.40
2022-10-09T20:01:32.563Z,12.35
2022-10-09T20:04:11.102Z,12.35
2022-10-09T20:06:50.658Z,12.35
2022-10-09T20:09:22.705Z,12.33
2022-10-09T20:12:23.140Z,12.26
2022-10-09T20:14:51.218Z,12.24
2022-10-09T20:17:21.966Z,12.22
2022-10-09T20:19:52.959Z,12.19
2022-10-09T20:22:28.611Z,12.13
2022-10-09T20:25:00.226Z,12.13
2022-10-09T20:27:38.489Z,12.11
2022-10-09T20:30:10.963Z,12.09
2022-10-09T20:32:43.995Z,12.04
2022-10-09T20:38:30.774Z,11.97
2022-10-09T20:41:11.427Z,11.95
2022-10-09T20:43:44.162Z,11.90
2022-10-09T20:46:27.293Z,11.87
2022-10-09T20:52:14.178Z,11.85
2022-10-09T20:54:47.666Z,11.80
2022-10-09T20:57:21.190Z,11.76
2022-10-09T20:59:50.749Z,11.75
2022-10-09T21:02:23.269Z,11.68
2022-10-09T21:05:00.632Z,11.63
2022-10-09T21:07:32.472Z,11.62
2022-10-09T21:10:07.325Z,11.61
2022-10-09T21:12:50.383Z,11.56
2022-10-09T21:15:24.135Z,11.53
2022-10-09T21:20:41.963Z,11.44
2022-10-09T21:23:10.224Z,11.38
2022-10-09T21:25:47.814Z,11.33
2022-10-09T21:28:38.900Z,11.30
2022-10-09T21:31:13.868Z,11.24
2022-10-09T21:33:43.189Z,11.19
2022-10-09T21:36:30.662Z,11.16
2022-10-09T21:39:15.909Z,11.10
2022-10-09T21:41:51.401Z,11.05
2022-10-09T21:44:23.089Z,11.02
2022-10-09T21:46:59.195Z,11.01
2022-10-09T21:50:54.415Z,11.00
2022-10-09T21:53:45.980Z,10.95
2022-10-09T21:56:28.190Z,10.90
2022-10-09T21:59:05.157Z,10.88
2022-10-09T22:04:37.055Z,10.84
2022-10-09T22:07:13.819Z,10.77
2022-10-09T22:09:43.343Z,10.75
2022-10-09T22:12:16.229Z,10.72
2022-10-09T22:14:55.071Z,10.75
2022-10-09T22:17:36.401Z,10.70
2022-10-09T22:20:08.680Z,10.65
2022-10-09T22:22:38.226Z,10.60
2022-10-09T22:25:08.912Z,10.58
2022-10-09T22:27:44.887Z,10.53
2022-10-09T22:30:24.038Z,10.51
2022-10-09T22:33:05.543Z,10.47
2022-10-09T22:35:35.181Z,10.41
2022-10-09T22:38:10.248Z,10.28
2022-10-09T22:41:01.262Z,10.23
2022-10-09T22:43:34.670Z,10.24
2022-10-09T22:46:10.597Z,10.26
2022-10-09T22:48:52.771Z,10.25
2022-10-09T22:51:29.761Z,10.25
2022-10-09T22:53:59.904Z,10.28
2022-10-09T22:56:30.004Z,10.27
2022-10-09T22:58:58.275Z,10.22
2022-10-09T23:01:36.371Z,10.21
2022-10-09T23:04:15.091Z,10.21
2022-10-09T23:06:47.138Z,10.19
2022-10-09T23:09:16.574Z,10.17
2022-10-09T23:11:44.290Z,10.15
2022-10-09T23:14:14.401Z,10.13
2022-10-09T23:16:43.934Z,10.13
2022-10-09T23:19:15.134Z,10.12
2022-10-09T23:21:50.219Z,10.06
2022-10-09T23:24:19.808Z,10.03
2022-10-09T23:26:51.130Z,10.01
2022-10-09T23:29:27.495Z,9.98
2022-10-09T23:32:01.770Z,9.96
2022-10-09T23:34:29.622Z,9.96
2022-10-09T23:36:58.363Z,9.95
2022-10-09T23:39:26.971Z,9.95
2022-10-09T23:42:01.363Z,9.94
2022-10-09T23:44:31.381Z,9.90
2022-10-09T23:47:00.686Z,9.90
2022-10-09T23:49:29.460Z,9.86
2022-10-09T23:51:57.759Z,9.80
2022-10-09T23:54:28.698Z,9.79
2022-10-09T23:56:56.664Z,9.81
2022-10-09T23:59:26.150Z,9.80
